CST,Max TemperatureF,Mean TemperatureF,Min TemperatureF,Max Dew PointF,MeanDew PointF,Min DewpointF,Max Humidity, Mean Humidity, Min Humidity, Max Sea Level PressureIn, Mean Sea Level PressureIn, Min Sea Level PressureIn, Max VisibilityMiles, Mean VisibilityMiles, Min VisibilityMiles, Max Wind SpeedMPH, Mean Wind SpeedMPH, Max Gust SpeedMPH,PrecipitationIn, CloudCover, Events, WindDirDegrees
2012-2-1,63,54,45,55,50,40,100,90,70,30.18,30.08,30.03,10,5,0,8,3,,0.00,4,Fog,360
2012-2-2,60,48,35,41,38,33,93,73,46,30.32,30.27,30.18,10,10,10,8,3,,0.00,0,,54
2012-2-3,51,46,42,49,43,35,93,86,61,30.29,30.19,30.07,10,7,2,9,5,,0.75,7,Rain,81
2012-2-4,62,54,46,56,50,39,100,89,67,30.12,30.03,29.96,10,5,0,13,4,22,0.37,5,Fog-Rain,260
2012-2-5,48,45,41,41,39,36,83,78,66,30.30,30.24,30.12,10,10,10,14,9,18,0.00,7,,327
2012-2-6,54,44,33,38,34,29,89,72,38,30.34,30.26,30.20,10,9,6,9,4,,0.00,0,,278
2012-2-7,53,42,30,36,32,27,92,70,41,30.31,30.26,30.23,10,10,9,10,1,,0.00,4,Rain,323
2012-2-8,43,40,37,38,32,30,89,75,68,30.43,30.38,30.31,10,10,9,14,7,21,0.00,8,Rain,349
2012-2-9,39,38,36,32,30,27,82,74,62,30.41,30.33,30.22,10,10,8,5,2,,0.00,7,,154
2012-2-10,41,36,28,37,32,17,96,84,61,30.24,30.12,30.03,10,6,1,22,7,32,0.08,8,Rain-Snow,226
2012-2-11,34,28,23,14,8,4,63,46,31,30.59,30.49,30.27,10,10,10,20,14,29,0.00,2,,331
2012-2-12,39,29,19,20,10,2,78,49,20,30.61,30.51,30.34,10,10,10,10,6,,0.00,0,,278
2012-2-13,34,30,25,31,27,19,93,83,54,30.34,30.07,29.93,10,5,1,15,6,18,0.28,8,Rain-Snow,163
2012-2-14,46,40,33,36,33,30,96,85,61,30.09,29.98,29.89,10,7,2,8,4,,0.04,6,,191
2012-2-15,48,42,35,46,41,34,100,92,87,30.14,30.04,29.96,8,4,1,12,5,,0.56,7,Rain,106
2012-2-16,59,50,39,46,43,35,96,80,51,30.25,30.12,29.97,10,8,1,12,5,16,0.00,5,,314
2012-2-17,50,42,35,41,37,34,93,82,64,30.27,30.19,30.12,7,5,2,6,1,,0.00,0,,184
2012-2-18,46,44,41,39,34,30,93,70,52,30.13,30.08,30.03,10,8,4,14,5,,0.00,8,,28
2012-2-19,52,44,34,32,28,24,73,58,34,30.18,30.08,30.01,10,10,10,14,10,18,0.00,3,,24
2012-2-20,51,40,28,37,29,24,85,66,48,30.27,30.13,29.89,10,10,4,12,5,,0.07,1,Rain,133
2012-2-21,60,52,43,40,35,29,77,57,32,30.00,29.91,29.79,10,10,10,21,13,34,0.02,2,,222
2012-2-22,64,50,37,55,45,32,89,74,61,29.85,29.61,29.49,10,10,9,14,7,20,0.00,0,,211
2012-2-23,73,58,44,55,47,36,93,65,33,29.54,29.37,29.24,10,10,5,23,8,37,0.00,1,,216
2012-2-24,52,44,37,34,24,17,51,43,27,30.22,29.98,29.58,10,10,10,30,16,37,0.00,3,,291
2012-2-25,52,44,32,28,20,10,82,45,19,30.36,30.29,30.21,10,10,10,18,6,29,0.00,0,,300
2012-2-26,62,45,28,34,29,24,85,54,30,30.29,30.21,30.11,10,10,10,18,5,23,0.00,0,,188
2012-2-27,62,50,37,37,33,30,86,56,32,30.39,30.34,30.24,10,10,10,13,4,20,0.00,1,,56
2012-2-28,66,54,41,62,45,28,90,67,48,30.36,30.08,29.81,10,10,4,22,9,33,0.03,7,Rain-Thunderstorm,124
2012-2-29,73,62,50,63,44,22,94,57,17,29.91,29.79,29.72,10,9,2,29,16,51,0.30,4,Rain-Thunderstorm,234